Time;durP1;ratioP1;P1;durP2;ratioP2;P2;SDS_P1;SDS_P2;PMS_P1;PMS_P2;Temp;Humidity;BMP_temperature;BMP_pressure;BME280_temperature;BME280_humidity;BME280_pressure;Samples;Min_cycle;Max_cycle;Signal;HPM_P1;HPM_P2
2021/05/21 00:00:31;;;;;;;2.47;1.23;;;;;;;;;;5039349;28;20802;-80
2021/05/21 00:02:57;;;;;;;3.70;1.90;;;;;;;;;;5057739;28;20114;-81
2021/05/21 00:05:24;;;;;;;3.30;1.35;;;;;;;;;;5039060;28;20056;-80
2021/05/21 00:07:49;;;;;;;2.92;1.55;;;;;;;;;;5056542;28;20482;-80
2021/05/21 00:10:15;;;;;;;2.63;1.40;;;;;;;;;;5056759;28;20095;-80
2021/05/21 00:12:40;;;;;;;3.03;1.50;;;;;;;;;;5038068;28;20063;-80
2021/05/21 00:15:09;;;;;;;2.03;1.60;;;;;;;;;;5057690;28;20043;-80
2021/05/21 00:17:35;;;;;;;3.63;1.40;;;;;;;;;;5057396;28;20033;-80
2021/05/21 00:20:00;;;;;;;3.88;1.50;;;;;;;;;;5057073;28;20083;-81
2021/05/21 00:22:26;;;;;;;2.90;1.40;;;;;;;;;;5056194;28;20455;-81
2021/05/21 00:24:51;;;;;;;4.00;1.60;;;;;;;;;;5057139;28;20040;-81
2021/05/21 00:27:17;;;;;;;4.50;1.80;;;;;;;;;;5055999;28;20035;-80
2021/05/21 00:29:43;;;;;;;3.47;1.20;;;;;;;;;;5056454;28;20510;-81
2021/05/21 00:32:09;;;;;;;2.90;1.58;;;;;;;;;;5056208;28;20041;-80
2021/05/21 00:34:34;;;;;;;1.70;1.15;;;;;;;;;;5055810;28;20087;-80
2021/05/21 00:37:00;;;;;;;3.17;1.33;;;;;;;;;;5056240;28;20043;-80
2021/05/21 00:39:25;;;;;;;3.10;1.60;;;;;;;;;;5055324;28;20114;-80
2021/05/21 00:41:50;;;;;;;4.38;1.52;;;;;;;;;;5037866;28;20102;-80
2021/05/21 00:44:16;;;;;;;2.97;1.15;;;;;;;;;;5055305;28;20029;-80
2021/05/21 00:46:42;;;;;;;7.97;1.67;;;;;;;;;;5056304;28;20460;-80
2021/05/21 00:49:07;;;;;;;4.57;1.60;;;;;;;;;;5037488;28;20542;-80
2021/05/21 00:51:33;;;;;;;3.20;1.30;;;;;;;;;;5055367;28;20396;-80
2021/05/21 00:53:59;;;;;;;2.85;1.08;;;;;;;;;;5055019;28;20061;-80
2021/05/21 00:56:27;;;;;;;4.82;1.52;;;;;;;;;;5055101;28;20071;-80
2021/05/21 00:58:53;;;;;;;3.67;1.33;;;;;;;;;;5055174;28;20033;-80
2021/05/21 01:01:18;;;;;;;2.50;1.20;;;;;;;;;;5040070;28;20055;-80
2021/05/21 01:03:44;;;;;;;2.83;1.23;;;;;;;;;;5058924;28;20032;-80
2021/05/21 01:06:11;;;;;;;6.93;1.60;;;;;;;;;;5058837;28;20474;-80
2021/05/21 01:08:36;;;;;;;1.80;1.27;;;;;;;;;;5059391;28;20481;-80
2021/05/21 01:11:06;;;;;;;1.65;1.25;;;;;;;;;;5058564;28;20044;-80
2021/05/21 01:13:33;;;;;;;4.40;1.40;;;;;;;;;;5059028;28;20037;-80
2021/05/21 01:15:59;;;;;;;2.70;1.02;;;;;;;;;;5059249;28;20045;-80
2021/05/21 01:18:25;;;;;;;1.35;1.25;;;;;;;;;;5058888;28;20037;-80
2021/05/21 01:20:50;;;;;;;1.83;1.30;;;;;;;;;;5040733;28;20025;-80
2021/05/21 01:23:15;;;;;;;1.98;1.20;;;;;;;;;;5058256;28;20382;-80
2021/05/21 01:25:41;;;;;;;1.75;1.15;;;;;;;;;;5040033;28;20032;-80
2021/05/21 01:28:06;;;;;;;1.80;1.05;;;;;;;;;;5058735;28;20033;-80
2021/05/21 01:30:32;;;;;;;1.50;1.10;;;;;;;;;;5058392;28;20127;-80
2021/05/21 01:33:13;;;;;;;6.68;1.58;;;;;;;;;;5057681;28;20124;-80
2021/05/21 01:35:42;;;;;;;2.70;1.30;;;;;;;;;;5058296;28;20032;-80
2021/05/21 01:38:09;;;;;;;6.78;1.30;;;;;;;;;;5057739;28;20524;-80
2021/05/21 01:40:36;;;;;;;3.03;1.20;;;;;;;;;;5040459;28;20036;-80
2021/05/21 01:43:02;;;;;;;2.38;1.40;;;;;;;;;;5057979;28;20029;-80
2021/05/21 01:45:28;;;;;;;2.55;1.13;;;;;;;;;;5040090;28;20036;-80
2021/05/21 01:47:54;;;;;;;4.72;1.50;;;;;;;;;;5057516;28;20475;-80
2021/05/21 01:50:19;;;;;;;3.08;1.92;;;;;;;;;;5058158;28;20033;-80
2021/05/21 01:52:45;;;;;;;3.53;1.10;;;;;;;;;;5056566;28;20029;-80
2021/05/21 01:55:12;;;;;;;3.38;1.30;;;;;;;;;;5057612;28;20391;-80
2021/05/21 01:57:38;;;;;;;6.30;1.48;;;;;;;;;;5057392;28;20132;-80
2021/05/21 02:00:06;;;;;;;1.02;0.90;;;;;;;;;;5057908;28;20056;-80
2021/05/21 02:02:39;;;;;;;1.48;1.08;;;;;;;;;;5057571;28;20373;-80
2021/05/21 02:05:06;;;;;;;4.15;1.13;;;;;;;;;;5057852;28;20040;-80
2021/05/21 02:07:31;;;;;;;2.65;1.10;;;;;;;;;;5057030;28;20044;-81
2021/05/21 02:10:01;;;;;;;4.53;1.40;;;;;;;;;;5059701;28;20056;-81
2021/05/21 02:12:29;;;;;;;3.58;1.40;;;;;;;;;;5074952;28;20043;-81
2021/05/21 02:14:57;;;;;;;3.00;1.33;;;;;;;;;;5082685;28;20037;-86
2021/05/21 02:17:24;;;;;;;1.95;1.10;;;;;;;;;;5081353;28;20059;-81
2021/05/21 02:19:50;;;;;;;3.95;1.50;;;;;;;;;;5081969;28;20032;-81
2021/05/21 02:22:19;;;;;;;6.13;1.40;;;;;;;;;;5070098;28;20037;-78
2021/05/21 02:24:45;;;;;;;3.03;1.45;;;;;;;;;;5061377;28;20044;-79
2021/05/21 02:27:11;;;;;;;2.78;1.45;;;;;;;;;;5060819;28;20033;-79
2021/05/21 02:29:38;;;;;;;3.80;1.48;;;;;;;;;;5043678;28;20410;-81
2021/05/21 02:32:04;;;;;;;2.22;1.40;;;;;;;;;;5059420;28;20052;-78
2021/05/21 02:34:29;;;;;;;1.60;1.27;;;;;;;;;;5058676;28;20044;-79
2021/05/21 02:36:54;;;;;;;3.15;1.45;;;;;;;;;;5060983;28;20033;-79
2021/05/21 02:39:20;;;;;;;3.53;1.75;;;;;;;;;;5059685;28;20037;-79
2021/05/21 02:41:45;;;;;;;3.88;1.48;;;;;;;;;;5060104;28;20029;-79
2021/05/21 02:44:11;;;;;;;4.38;1.60;;;;;;;;;;5059736;28;20037;-79
2021/05/21 02:46:36;;;;;;;2.28;1.33;;;;;;;;;;5041185;28;20116;-79
2021/05/21 02:49:01;;;;;;;1.90;1.20;;;;;;;;;;5060328;28;20033;-79
2021/05/21 02:51:27;;;;;;;4.53;1.40;;;;;;;;;;5058150;28;20033;-80
2021/05/21 02:53:52;;;;;;;1.80;1.30;;;;;;;;;;5042587;28;20047;-79
2021/05/21 02:56:18;;;;;;;3.42;1.38;;;;;;;;;;5061882;28;20041;-79
2021/05/21 02:58:43;;;;;;;4.45;1.40;;;;;;;;;;5062767;28;20041;-81
2021/05/21 03:01:08;;;;;;;1.27;1.13;;;;;;;;;;5063259;28;20056;-81
2021/05/21 03:03:34;;;;;;;2.03;1.27;;;;;;;;;;5059305;28;20037;-82
2021/05/21 03:05:59;;;;;;;2.45;1.20;;;;;;;;;;5058452;28;20043;-82
2021/05/21 03:08:25;;;;;;;4.75;1.90;;;;;;;;;;5058355;28;20063;-82
2021/05/21 03:10:51;;;;;;;4.40;1.50;;;;;;;;;;5039499;28;20068;-82
2021/05/21 03:13:16;;;;;;;4.03;1.63;;;;;;;;;;5058055;28;20041;-83
2021/05/21 03:15:43;;;;;;;1.98;1.30;;;;;;;;;;5058073;28;20040;-82
2021/05/21 03:18:18;;;;;;;4.13;1.65;;;;;;;;;;5039520;28;20033;-83
2021/05/21 03:20:44;;;;;;;1.33;1.20;;;;;;;;;;5057990;28;20029;-83
2021/05/21 03:23:10;;;;;;;1.65;1.30;;;;;;;;;;5057507;28;20033;-83
2021/05/21 03:25:43;;;;;;;4.13;1.48;;;;;;;;;;5057203;28;20448;-82
2021/05/21 03:28:09;;;;;;;3.55;1.20;;;;;;;;;;5057455;28;20041;-82
2021/05/21 03:30:37;;;;;;;4.93;1.75;;;;;;;;;;5057587;28;20037;-82
2021/05/21 03:33:02;;;;;;;2.33;1.20;;;;;;;;;;5056648;28;20122;-82
2021/05/21 03:35:28;;;;;;;4.03;1.20;;;;;;;;;;5038951;28;20044;-82
2021/05/21 03:37:54;;;;;;;2.95;1.30;;;;;;;;;;5057025;28;20048;-82
2021/05/21 03:40:19;;;;;;;3.70;1.40;;;;;;;;;;5045326;28;20116;-82
2021/05/21 03:42:45;;;;;;;2.28;1.50;;;;;;;;;;5053192;28;20029;-82
2021/05/21 03:45:10;;;;;;;1.63;1.40;;;;;;;;;;5039035;28;20505;-82
2021/05/21 03:47:36;;;;;;;6.35;1.67;;;;;;;;;;5056483;28;20111;-82
2021/05/21 03:50:02;;;;;;;1.70;1.00;;;;;;;;;;5038419;28;20402;-82
2021/05/21 03:52:27;;;;;;;3.60;1.65;;;;;;;;;;5056123;28;20071;-82
2021/05/21 03:54:53;;;;;;;4.43;1.58;;;;;;;;;;5056432;28;20048;-82
2021/05/21 03:57:22;;;;;;;5.47;1.30;;;;;;;;;;5055929;28;20033;-82
2021/05/21 03:59:49;;;;;;;4.07;1.23;;;;;;;;;;5055674;28;20028;-85
2021/05/21 04:02:16;;;;;;;4.50;1.40;;;;;;;;;;5055228;28;20112;-83
2021/05/21 04:04:41;;;;;;;2.03;1.08;;;;;;;;;;5055946;28;20035;-82
2021/05/21 04:07:07;;;;;;;2.25;1.02;;;;;;;;;;5037710;28;20037;-82
2021/05/21 04:09:34;;;;;;;5.70;1.40;;;;;;;;;;5055848;28;20075;-83
2021/05/21 04:12:00;;;;;;;4.57;1.17;;;;;;;;;;5023836;28;20498;-84
2021/05/21 04:14:25;;;;;;;1.67;1.23;;;;;;;;;;5041516;28;20033;-84
2021/05/21 04:16:51;;;;;;;2.60;1.10;;;;;;;;;;5041691;28;20471;-84
2021/05/21 04:19:17;;;;;;;1.73;1.30;;;;;;;;;;5058223;28;20051;-82
2021/05/21 04:21:42;;;;;;;3.53;1.00;;;;;;;;;;5036509;28;20032;-83
2021/05/21 04:24:08;;;;;;;9.18;1.40;;;;;;;;;;5037149;28;20029;-83
2021/05/21 04:26:33;;;;;;;4.95;1.10;;;;;;;;;;5054948;28;20033;-82
2021/05/21 04:28:59;;;;;;;1.95;1.30;;;;;;;;;;5054962;28;20037;-83
2021/05/21 04:31:25;;;;;;;4.32;1.13;;;;;;;;;;5036919;28;20032;-83
2021/05/21 04:33:51;;;;;;;2.55;1.27;;;;;;;;;;5036543;28;20075;-84
2021/05/21 04:36:17;;;;;;;1.50;1.08;;;;;;;;;;5059763;28;20033;-82
2021/05/21 04:38:42;;;;;;;4.35;0.95;;;;;;;;;;5061254;28;20040;-82
2021/05/21 04:41:08;;;;;;;1.83;1.10;;;;;;;;;;5027182;28;20463;-83
2021/05/21 04:43:33;;;;;;;1.85;1.20;;;;;;;;;;5037763;28;20041;-81
2021/05/21 04:46:00;;;;;;;1.48;0.98;;;;;;;;;;5056815;28;20063;-81
2021/05/21 04:48:28;;;;;;;1.77;1.10;;;;;;;;;;5021312;28;20406;-83
2021/05/21 04:50:53;;;;;;;2.22;1.00;;;;;;;;;;5038607;28;20037;-83
2021/05/21 04:53:19;;;;;;;1.52;1.00;;;;;;;;;;5038075;28;20038;-82
2021/05/21 04:55:46;;;;;;;3.38;1.10;;;;;;;;;;5056427;28;20410;-82
2021/05/21 04:58:11;;;;;;;3.90;1.60;;;;;;;;;;5056378;28;20061;-82
2021/05/21 05:00:37;;;;;;;1.33;1.00;;;;;;;;;;5056369;28;20040;-82
2021/05/21 05:03:04;;;;;;;1.00;0.90;;;;;;;;;;5056009;28;20506;-82
2021/05/21 05:05:30;;;;;;;3.45;1.10;;;;;;;;;;5056975;28;20080;-82
2021/05/21 05:07:56;;;;;;;1.30;0.90;;;;;;;;;;5057172;28;20033;-83
2021/05/21 05:10:21;;;;;;;3.00;1.20;;;;;;;;;;5056750;28;20032;-83
2021/05/21 05:12:46;;;;;;;7.00;1.02;;;;;;;;;;5056091;28;20112;-82
2021/05/21 05:15:12;;;;;;;2.45;1.00;;;;;;;;;;5055577;28;20056;-81
2021/05/21 05:17:38;;;;;;;2.72;1.20;;;;;;;;;;5054648;28;20174;-82
2021/05/21 05:20:04;;;;;;;3.30;0.85;;;;;;;;;;5055616;28;20032;-83
2021/05/21 05:22:29;;;;;;;4.30;1.20;;;;;;;;;;5056037;28;20036;-83
2021/05/21 05:24:55;;;;;;;1.63;0.90;;;;;;;;;;5037519;28;20467;-83
2021/05/21 05:27:20;;;;;;;1.92;0.90;;;;;;;;;;5054419;28;20037;-82
2021/05/21 05:29:47;;;;;;;8.18;1.30;;;;;;;;;;5055950;28;20032;-82
2021/05/21 05:32:13;;;;;;;2.45;1.10;;;;;;;;;;5037525;28;20621;-83
2021/05/21 05:34:39;;;;;;;3.05;1.23;;;;;;;;;;5054171;28;20095;-82
2021/05/21 05:37:04;;;;;;;2.10;1.00;;;;;;;;;;5055704;28;20060;-86
2021/05/21 05:39:29;;;;;;;1.63;1.00;;;;;;;;;;5037695;28;20072;-81
2021/05/21 05:41:55;;;;;;;3.15;0.93;;;;;;;;;;5056413;28;20036;-80
2021/05/21 05:44:20;;;;;;;8.13;2.47;;;;;;;;;;5039040;28;20036;-80
2021/05/21 05:46:46;;;;;;;3.35;0.93;;;;;;;;;;5058523;28;20031;-83
2021/05/21 05:49:12;;;;;;;7.93;1.55;;;;;;;;;;5058660;28;20479;-80
2021/05/21 05:51:37;;;;;;;5.40;1.33;;;;;;;;;;5042731;28;20044;-81
2021/05/21 05:54:03;;;;;;;1.38;1.00;;;;;;;;;;5060852;28;20047;-79
2021/05/21 05:56:29;;;;;;;2.75;1.00;;;;;;;;;;5058536;28;20033;-79
2021/05/21 05:58:55;;;;;;;5.68;1.35;;;;;;;;;;5058703;28;20033;-80
2021/05/21 06:01:21;;;;;;;6.65;1.08;;;;;;;;;;5059901;28;20203;-78
2021/05/21 06:03:46;;;;;;;3.63;0.95;;;;;;;;;;5059033;28;20059;-78
2021/05/21 06:06:11;;;;;;;3.35;1.10;;;;;;;;;;5060145;28;20040;-79
2021/05/21 06:08:37;;;;;;;4.68;0.93;;;;;;;;;;5042161;28;20058;-79
2021/05/21 06:11:02;;;;;;;1.90;0.70;;;;;;;;;;5058696;28;20414;-78
2021/05/21 06:13:28;;;;;;;2.92;0.95;;;;;;;;;;5057997;28;20076;-77
2021/05/21 06:15:53;;;;;;;6.10;1.10;;;;;;;;;;5041181;28;20037;-81
2021/05/21 06:18:20;;;;;;;2.40;1.10;;;;;;;;;;5058563;28;20472;-81
2021/05/21 06:20:45;;;;;;;4.25;1.20;;;;;;;;;;5041170;28;20033;-81
2021/05/21 06:23:12;;;;;;;1.98;1.13;;;;;;;;;;5064591;28;20045;-82
2021/05/21 06:28:06;;;;;;;5.82;0.88;;;;;;;;;;5063044;28;20036;-85
2021/05/21 06:30:32;;;;;;;5.35;1.42;;;;;;;;;;5063657;28;20474;-85
2021/05/21 06:32:57;;;;;;;4.00;1.05;;;;;;;;;;5062477;28;20132;-84
2021/05/21 06:35:23;;;;;;;6.05;1.50;;;;;;;;;;5060578;28;20115;-79
2021/05/21 06:37:48;;;;;;;5.47;1.70;;;;;;;;;;5070480;28;20041;-79
2021/05/21 06:40:14;;;;;;;2.10;1.00;;;;;;;;;;5051101;28;20048;-78
2021/05/21 06:42:40;;;;;;;9.90;1.00;;;;;;;;;;5062351;28;20029;-78
2021/05/21 06:45:06;;;;;;;1.30;0.88;;;;;;;;;;5055743;28;20452;-77
2021/05/21 06:47:32;;;;;;;2.03;0.80;;;;;;;;;;5038708;28;20052;-79
2021/05/21 06:49:57;;;;;;;2.35;1.10;;;;;;;;;;5060230;28;20115;-81
2021/05/21 06:52:23;;;;;;;3.10;1.10;;;;;;;;;;5060608;28;20039;-80
2021/05/21 06:54:48;;;;;;;3.15;1.00;;;;;;;;;;5060470;28;20041;-80
2021/05/21 06:57:14;;;;;;;1.27;0.70;;;;;;;;;;5043666;28;20111;-79
2021/05/21 06:59:40;;;;;;;1.35;0.77;;;;;;;;;;5060068;28;20033;-79
2021/05/21 07:02:06;;;;;;;2.78;1.08;;;;;;;;;;5041194;28;20037;-80
2021/05/21 07:04:31;;;;;;;1.27;0.65;;;;;;;;;;5059864;28;20132;-76
2021/05/21 07:06:57;;;;;;;2.45;1.00;;;;;;;;;;5055076;28;20485;-75
2021/05/21 07:09:22;;;;;;;2.60;1.13;;;;;;;;;;5039367;28;20060;-79
2021/05/21 07:11:47;;;;;;;4.55;0.85;;;;;;;;;;5038366;28;20045;-77
2021/05/21 07:14:14;;;;;;;8.98;0.73;;;;;;;;;;5053825;28;20041;-76
2021/05/21 07:16:40;;;;;;;2.00;0.65;;;;;;;;;;5054905;28;20037;-79
2021/05/21 07:19:05;;;;;;;4.28;1.33;;;;;;;;;;5057287;28;20027;-79
2021/05/21 07:21:31;;;;;;;6.65;0.85;;;;;;;;;;5058274;28;20044;-76
2021/05/21 07:23:56;;;;;;;4.32;0.93;;;;;;;;;;5053858;28;20402;-74
2021/05/21 07:26:23;;;;;;;3.25;0.90;;;;;;;;;;5054235;28;20033;-76
2021/05/21 07:28:48;;;;;;;2.42;0.80;;;;;;;;;;5035582;28;20049;-76
2021/05/21 07:31:14;;;;;;;4.65;0.85;;;;;;;;;;5053929;28;20041;-76
2021/05/21 07:33:40;;;;;;;3.15;0.98;;;;;;;;;;5052619;28;20072;-77
2021/05/21 07:36:06;;;;;;;3.60;1.10;;;;;;;;;;5053476;28;20068;-75
2021/05/21 07:38:33;;;;;;;2.67;1.10;;;;;;;;;;5054041;28;20029;-76
2021/05/21 07:40:59;;;;;;;2.42;1.00;;;;;;;;;;5053583;28;20033;-77
2021/05/21 07:43:24;;;;;;;3.83;1.00;;;;;;;;;;5054562;28;20033;-75
2021/05/21 07:45:50;;;;;;;1.48;0.73;;;;;;;;;;5054106;28;20082;-74
2021/05/21 07:48:15;;;;;;;4.03;0.82;;;;;;;;;;5053953;28;20407;-75
2021/05/21 07:50:41;;;;;;;2.67;1.23;;;;;;;;;;5036313;28;20182;-74
2021/05/21 07:53:09;;;;;;;4.93;0.93;;;;;;;;;;5053896;28;20033;-74
2021/05/21 07:55:35;;;;;;;1.80;0.90;;;;;;;;;;5054014;28;20064;-74
2021/05/21 07:58:00;;;;;;;8.15;1.13;;;;;;;;;;5053070;28;20110;-74
2021/05/21 08:00:25;;;;;;;8.10;1.00;;;;;;;;;;5054052;28;20029;-74
2021/05/21 08:02:51;;;;;;;16.67;4.72;;;;;;;;;;5053812;28;20459;-74
2021/05/21 08:05:16;;;;;;;8.65;2.40;;;;;;;;;;5053897;28;20039;-74
2021/05/21 08:07:42;;;;;;;11.00;5.70;;;;;;;;;;5053702;28;20068;-74
2021/05/21 08:10:09;;;;;;;6.15;3.17;;;;;;;;;;5052454;28;20126;-74
2021/05/21 08:12:35;;;;;;;12.80;2.55;;;;;;;;;;5053481;28;20099;-75
2021/05/21 08:15:01;;;;;;;3.42;1.92;;;;;;;;;;5034693;28;20037;-74
2021/05/21 08:17:31;;;;;;;3.17;1.30;;;;;;;;;;5053529;28;20037;-74
2021/05/21 08:19:56;;;;;;;2.42;1.10;;;;;;;;;;5035830;28;20406;-74
2021/05/21 08:22:22;;;;;;;3.38;1.20;;;;;;;;;;5035537;28;20035;-74
2021/05/21 08:24:47;;;;;;;2.38;0.95;;;;;;;;;;5053502;28;20112;-74
2021/05/21 08:27:13;;;;;;;2.58;0.95;;;;;;;;;;5035502;28;20047;-74
2021/05/21 08:29:38;;;;;;;2.85;0.80;;;;;;;;;;5034914;28;20037;-74
2021/05/21 08:32:04;;;;;;;2.38;0.95;;;;;;;;;;5052710;28;20041;-74
2021/05/21 08:34:29;;;;;;;2.55;0.70;;;;;;;;;;5053155;28;20041;-74
2021/05/21 08:36:55;;;;;;;3.17;1.10;;;;;;;;;;5053258;28;20087;-74
2021/05/21 08:39:21;;;;;;;0.98;0.70;;;;;;;;;;5053112;28;20062;-74
2021/05/21 08:41:50;;;;;;;2.92;0.90;;;;;;;;;;5053360;28;20036;-74
2021/05/21 08:44:19;;;;;;;1.38;0.70;;;;;;;;;;5035166;28;20505;-74
2021/05/21 08:46:44;;;;;;;5.70;0.90;;;;;;;;;;5052268;28;20167;-75
2021/05/21 08:49:10;;;;;;;2.88;1.60;;;;;;;;;;5053451;28;20055;-75
2021/05/21 08:51:35;;;;;;;5.25;0.90;;;;;;;;;;5053097;28;20044;-74
2021/05/21 08:54:01;;;;;;;3.42;0.90;;;;;;;;;;5052733;28;20044;-74
2021/05/21 08:56:26;;;;;;;6.78;0.73;;;;;;;;;;5034992;28;20041;-74
2021/05/21 08:58:52;;;;;;;1.17;0.63;;;;;;;;;;5035193;28;20037;-74
2021/05/21 09:01:19;;;;;;;3.22;0.95;;;;;;;;;;5052762;28;20483;-74
2021/05/21 09:03:46;;;;;;;15.88;1.50;;;;;;;;;;5051966;28;20032;-74
2021/05/21 09:06:20;;;;;;;3.50;0.90;;;;;;;;;;5052883;28;20112;-74
2021/05/21 09:08:50;;;;;;;3.55;0.98;;;;;;;;;;5018707;28;20033;-74
2021/05/21 09:11:52;;;;;;;3.15;1.42;;;;;;;;;;5052897;28;20095;-74
2021/05/21 09:14:21;;;;;;;1.15;0.60;;;;;;;;;;4972187;28;20394;-74
2021/05/21 09:16:47;;;;;;;3.25;1.00;;;;;;;;;;5024185;28;20055;-76
2021/05/21 09:19:17;;;;;;;3.13;1.13;;;;;;;;;;5034932;28;20045;-75
2021/05/21 09:21:59;;;;;;;1.77;0.88;;;;;;;;;;5055018;28;20040;-75
2021/05/21 09:24:29;;;;;;;2.67;1.08;;;;;;;;;;5056967;28;20036;-75
2021/05/21 09:26:56;;;;;;;2.03;0.98;;;;;;;;;;5055825;28;20132;-74
2021/05/21 09:29:35;;;;;;;2.72;0.90;;;;;;;;;;5038888;28;20467;-75
2021/05/21 09:32:13;;;;;;;5.18;0.98;;;;;;;;;;5056726;28;20032;-75
2021/05/21 09:34:39;;;;;;;2.95;1.00;;;;;;;;;;5056498;28;20110;-75
2021/05/21 09:37:04;;;;;;;4.22;0.82;;;;;;;;;;5056749;28;20032;-75
2021/05/21 09:39:30;;;;;;;6.18;1.00;;;;;;;;;;5056538;28;20029;-75
2021/05/21 09:41:57;;;;;;;2.22;1.00;;;;;;;;;;5056265;28;20104;-76
2021/05/21 09:44:25;;;;;;;3.35;1.10;;;;;;;;;;5056018;28;20406;-75
2021/05/21 09:46:51;;;;;;;5.72;0.88;;;;;;;;;;5056446;28;20036;-75
2021/05/21 09:49:34;;;;;;;2.35;0.95;;;;;;;;;;5055158;28;20036;-75
2021/05/21 09:52:04;;;;;;;6.45;1.00;;;;;;;;;;5056108;28;20615;-75
2021/05/21 09:54:50;;;;;;;2.60;1.10;;;;;;;;;;5038305;28;20112;-75
2021/05/21 09:57:16;;;;;;;4.32;1.10;;;;;;;;;;5056331;28;20029;-77
2021/05/21 09:59:46;;;;;;;1.20;0.90;;;;;;;;;;5056098;28;20379;-74
2021/05/21 10:02:25;;;;;;;3.95;0.90;;;;;;;;;;5038060;28;20463;-77
2021/05/21 10:04:52;;;;;;;2.58;1.00;;;;;;;;;;5055882;28;20079;-73
2021/05/21 10:07:19;;;;;;;3.33;0.93;;;;;;;;;;5056211;28;20076;-73
2021/05/21 10:09:44;;;;;;;5.10;0.90;;;;;;;;;;5054900;28;20041;-73
2021/05/21 10:12:11;;;;;;;3.90;1.40;;;;;;;;;;5056029;28;20086;-73
2021/05/21 10:14:36;;;;;;;3.38;0.80;;;;;;;;;;5056142;28;20124;-74
2021/05/21 10:17:03;;;;;;;3.63;0.93;;;;;;;;;;5057299;28;20071;-75
2021/05/21 10:19:30;;;;;;;3.67;0.93;;;;;;;;;;5055913;28;20041;-76
2021/05/21 10:21:57;;;;;;;2.90;0.80;;;;;;;;;;5055915;28;20409;-75
2021/05/21 10:24:28;;;;;;;6.78;1.02;;;;;;;;;;5056486;28;20045;-79
2021/05/21 10:26:58;;;;;;;5.90;1.45;;;;;;;;;;5055118;28;20074;-76
2021/05/21 10:29:29;;;;;;;3.40;1.35;;;;;;;;;;5055824;28;20379;-78
2021/05/21 10:32:10;;;;;;;8.07;1.40;;;;;;;;;;5059784;28;20041;-78
2021/05/21 10:34:41;;;;;;;5.72;1.10;;;;;;;;;;5064801;28;20052;-79
2021/05/21 10:37:35;;;;;;;4.57;1.00;;;;;;;;;;5058537;28;20127;-78
2021/05/21 10:40:32;;;;;;;1.73;0.80;;;;;;;;;;5058100;28;20044;-79
2021/05/21 10:43:22;;;;;;;5.20;0.75;;;;;;;;;;5044360;28;20064;-79
2021/05/21 10:46:14;;;;;;;4.40;1.05;;;;;;;;;;5036513;28;20493;-75
2021/05/21 10:48:53;;;;;;;5.32;1.13;;;;;;;;;;5055252;28;20506;-73
2021/05/21 10:51:18;;;;;;;2.88;1.20;;;;;;;;;;5055163;28;20057;-73
2021/05/21 10:53:46;;;;;;;2.88;0.60;;;;;;;;;;5055353;28;20060;-74
2021/05/21 10:56:12;;;;;;;9.98;1.25;;;;;;;;;;5037258;28;20459;-74
2021/05/21 10:58:45;;;;;;;2.65;0.80;;;;;;;;;;5054069;28;20040;-73
2021/05/21 11:01:12;;;;;;;4.65;1.42;;;;;;;;;;5055242;28;20037;-73
2021/05/21 11:04:02;;;;;;;3.35;1.08;;;;;;;;;;5055234;28;20036;-74
2021/05/21 11:06:40;;;;;;;5.75;1.00;;;;;;;;;;5037239;28;20455;-73
2021/05/21 11:09:09;;;;;;;2.13;0.88;;;;;;;;;;5055204;28;20032;-73
2021/05/21 11:11:42;;;;;;;6.28;0.93;;;;;;;;;;5037227;28;20044;-74
2021/05/21 11:14:29;;;;;;;8.50;1.13;;;;;;;;;;5036914;28;20048;-74
2021/05/21 11:16:57;;;;;;;3.47;1.00;;;;;;;;;;5053867;28;20548;-74
2021/05/21 11:19:28;;;;;;;2.92;0.85;;;;;;;;;;5037307;28;20383;-74
2021/05/21 11:22:06;;;;;;;4.95;1.00;;;;;;;;;;5054559;28;20040;-73
2021/05/21 11:24:39;;;;;;;2.72;0.90;;;;;;;;;;5054433;28;20506;-73
2021/05/21 11:27:06;;;;;;;2.80;0.95;;;;;;;;;;5054881;28;20041;-74
2021/05/21 11:29:34;;;;;;;12.68;1.63;;;;;;;;;;5054725;28;20040;-73
2021/05/21 11:32:01;;;;;;;6.28;1.20;;;;;;;;;;5054776;28;20095;-73
2021/05/21 11:34:26;;;;;;;1.45;0.90;;;;;;;;;;5054689;28;20041;-73
2021/05/21 11:36:55;;;;;;;3.58;1.10;;;;;;;;;;5037046;28;20043;-74
2021/05/21 11:39:23;;;;;;;1.55;0.70;;;;;;;;;;5037142;28;20123;-73
2021/05/21 11:41:49;;;;;;;5.93;1.38;;;;;;;;;;5054564;28;20486;-73
2021/05/21 11:44:15;;;;;;;5.53;1.13;;;;;;;;;;5053726;28;20029;-74
2021/05/21 11:46:43;;;;;;;3.33;1.15;;;;;;;;;;5054279;28;20494;-73
2021/05/21 11:49:10;;;;;;;6.75;1.85;;;;;;;;;;5054603;28;20049;-73
2021/05/21 11:51:37;;;;;;;2.75;0.90;;;;;;;;;;5054653;28;20080;-73
2021/05/21 11:54:04;;;;;;;6.60;1.38;;;;;;;;;;5054308;28;20051;-73
2021/05/21 11:56:31;;;;;;;2.72;1.10;;;;;;;;;;5054237;28;20041;-73
2021/05/21 11:58:58;;;;;;;2.65;1.05;;;;;;;;;;5054081;28;20029;-73
2021/05/21 12:01:23;;;;;;;2.88;1.15;;;;;;;;;;5054391;28;20461;-73
2021/05/21 12:03:49;;;;;;;3.75;0.85;;;;;;;;;;5054239;28;20025;-74
2021/05/21 12:06:14;;;;;;;4.10;1.10;;;;;;;;;;5054002;28;20491;-74
2021/05/21 12:08:46;;;;;;;5.35;1.30;;;;;;;;;;5054010;28;20041;-74
2021/05/21 12:11:11;;;;;;;4.82;1.45;;;;;;;;;;5052934;28;20440;-73
2021/05/21 12:13:37;;;;;;;6.95;1.67;;;;;;;;;;5053802;28;20044;-73
2021/05/21 12:16:13;;;;;;;3.97;1.27;;;;;;;;;;5035934;28;20039;-73
2021/05/21 12:18:38;;;;;;;3.95;1.10;;;;;;;;;;5053732;28;20040;-74
2021/05/21 12:21:04;;;;;;;6.38;1.20;;;;;;;;;;5053423;28;20037;-74
2021/05/21 12:23:34;;;;;;;4.22;1.10;;;;;;;;;;5053584;28;20036;-74
2021/05/21 12:26:00;;;;;;;4.53;1.38;;;;;;;;;;5053504;28;20041;-73
2021/05/21 12:28:25;;;;;;;5.47;1.83;;;;;;;;;;5053536;28;20129;-74
2021/05/21 12:30:51;;;;;;;8.93;1.42;;;;;;;;;;5053528;28;20115;-74
2021/05/21 12:33:17;;;;;;;7.22;1.42;;;;;;;;;;5052643;28;20045;-74
2021/05/21 12:35:43;;;;;;;8.52;1.95;;;;;;;;;;5053394;28;20037;-74
2021/05/21 12:38:11;;;;;;;10.05;2.65;;;;;;;;;;5053556;28;20119;-74
2021/05/21 12:40:53;;;;;;;7.85;1.55;;;;;;;;;;5052755;28;20017;-73
2021/05/21 12:43:19;;;;;;;4.30;1.40;;;;;;;;;;5053872;28;20093;-75
2021/05/21 12:45:53;;;;;;;14.50;3.10;;;;;;;;;;5035625;28;20052;-74
2021/05/21 12:48:19;;;;;;;4.53;1.80;;;;;;;;;;5052734;28;20090;-76
2021/05/21 12:50:44;;;;;;;15.80;3.08;;;;;;;;;;5053056;28;20033;-75
2021/05/21 12:53:09;;;;;;;63.55;44.03;;;;;;;;;;5052881;28;20037;-75
2021/05/21 12:55:44;;;;;;;12.70;3.38;;;;;;;;;;5052232;28;20091;-75
2021/05/21 12:58:15;;;;;;;9.63;1.98;;;;;;;;;;5053022;28;20043;-76
2021/05/21 13:00:40;;;;;;;6.15;1.77;;;;;;;;;;5052408;28;20083;-75
2021/05/21 13:03:08;;;;;;;10.57;1.40;;;;;;;;;;5053550;28;20029;-77
2021/05/21 13:05:38;;;;;;;5.35;1.30;;;;;;;;;;5019688;28;20124;-79
2021/05/21 13:08:05;;;;;;;4.53;1.58;;;;;;;;;;5034751;28;20499;-78
2021/05/21 13:10:41;;;;;;;7.35;1.65;;;;;;;;;;5036095;28;20067;-78
2021/05/21 13:13:07;;;;;;;4.03;1.40;;;;;;;;;;5035012;28;20044;-76
2021/05/21 13:15:37;;;;;;;5.07;1.50;;;;;;;;;;5056106;28;20049;-77
2021/05/21 13:18:03;;;;;;;3.75;1.40;;;;;;;;;;5046550;28;20032;-76
2021/05/21 13:20:32;;;;;;;4.63;1.55;;;;;;;;;;5070186;28;20178;-74
2021/05/21 13:23:00;;;;;;;6.72;1.52;;;;;;;;;;5053029;28;20390;-75
2021/05/21 13:25:29;;;;;;;5.85;1.80;;;;;;;;;;5036192;28;20037;-76
2021/05/21 13:27:59;;;;;;;5.60;1.80;;;;;;;;;;5053003;28;20411;-75
2021/05/21 13:30:24;;;;;;;10.40;1.83;;;;;;;;;;5055260;28;20098;-75
2021/05/21 13:32:50;;;;;;;6.82;1.88;;;;;;;;;;5035350;28;20085;-75
2021/05/21 13:35:16;;;;;;;9.85;2.03;;;;;;;;;;5059891;28;20037;-75
2021/05/21 13:37:42;;;;;;;6.90;1.42;;;;;;;;;;5061287;28;20482;-75
2021/05/21 13:40:09;;;;;;;6.18;1.60;;;;;;;;;;5058918;28;20031;-75
2021/05/21 13:42:35;;;;;;;9.50;1.95;;;;;;;;;;5059193;28;20366;-75
2021/05/21 13:45:08;;;;;;;4.30;1.60;;;;;;;;;;5049102;28;20028;-75
2021/05/21 13:47:33;;;;;;;6.07;1.55;;;;;;;;;;5072334;28;20066;-74
2021/05/21 13:49:59;;;;;;;8.32;2.10;;;;;;;;;;5054672;28;20421;-75
2021/05/21 13:52:25;;;;;;;13.23;1.70;;;;;;;;;;5072639;28;20066;-75
2021/05/21 13:54:51;;;;;;;5.85;1.80;;;;;;;;;;5072180;28;20028;-75
2021/05/21 13:57:16;;;;;;;8.52;2.15;;;;;;;;;;5072618;28;20629;-74
2021/05/21 13:59:42;;;;;;;8.50;1.83;;;;;;;;;;5072749;28;20036;-74
2021/05/21 14:02:10;;;;;;;6.90;1.85;;;;;;;;;;5072412;28;20028;-75
2021/05/21 14:04:36;;;;;;;7.82;2.20;;;;;;;;;;5072539;28;20033;-75
2021/05/21 14:07:02;;;;;;;3.95;1.80;;;;;;;;;;5072558;28;20082;-75
2021/05/21 14:09:28;;;;;;;13.98;1.95;;;;;;;;;;5049111;28;20041;-75
2021/05/21 14:11:53;;;;;;;12.02;2.05;;;;;;;;;;5056038;28;20036;-75
2021/05/21 14:14:19;;;;;;;8.32;1.85;;;;;;;;;;5055828;28;20040;-75
2021/05/21 14:16:44;;;;;;;7.75;1.85;;;;;;;;;;5055800;28;20096;-74
2021/05/21 14:19:12;;;;;;;7.75;1.98;;;;;;;;;;5054012;28;20075;-75
2021/05/21 14:21:38;;;;;;;4.80;1.58;;;;;;;;;;5054971;28;20041;-76
2021/05/21 14:24:05;;;;;;;9.52;2.08;;;;;;;;;;5055644;28;20083;-76
2021/05/21 14:26:33;;;;;;;9.65;1.92;;;;;;;;;;5055414;28;20033;-75
2021/05/21 14:29:08;;;;;;;5.63;1.88;;;;;;;;;;5060563;28;20081;-75
2021/05/21 14:31:42;;;;;;;;;;;;;;;;;;5062703;28;20028;-75
2021/05/21 14:34:10;;;;;;;14.63;8.15;;;;;;;;;;5055323;28;19923;-74
2021/05/21 14:36:35;;;;;;;6.28;2.20;;;;;;;;;;5075003;28;20043;-74
2021/05/21 14:39:01;;;;;;;5.80;1.73;;;;;;;;;;5073707;28;20032;-74
2021/05/21 14:41:26;;;;;;;12.15;1.90;;;;;;;;;;5074573;28;20466;-74
2021/05/21 14:43:52;;;;;;;8.45;1.65;;;;;;;;;;5056118;28;20033;-74
2021/05/21 14:46:20;;;;;;;7.97;1.65;;;;;;;;;;5056410;28;20887;-74